Time;durP1;ratioP1;P1;durP2;ratioP2;P2;SDS_P1;SDS_P2;PMS_P1;PMS_P2;Temp;Humidity;BMP_temperature;BMP_pressure;BME280_temperature;BME280_humidity;BME280_pressure;Samples;Min_cycle;Max_cycle;Signal;HPM_P1;HPM_P2
2022/09/01 00:01:19;;;;;;;9.02;6.95;;;;;;;19.31;51.35;93655.06;4974262;28;20050;-79
2022/09/01 00:03:47;;;;;;;9.27;7.20;;;;;;;19.61;51.78;93711.59;4958107;28;20506;-78
2022/09/01 00:06:21;;;;;;;7.88;5.88;;;;;;;19.60;51.46;93710.06;4975230;28;20030;-79
2022/09/01 00:08:55;;;;;;;10.88;6.60;;;;;;;19.43;51.73;93689.81;4957321;28;20459;-80
2022/09/01 00:11:22;;;;;;;9.38;7.40;;;;;;;19.38;52.00;93689.38;4972472;28;20031;-80
2022/09/01 00:13:49;;;;;;;9.27;6.95;;;;;;;19.49;52.21;93693.78;4972753;28;20041;-79
2022/09/01 00:16:16;;;;;;;9.68;7.28;;;;;;;19.48;52.61;93694.13;4974690;28;20474;-80
2022/09/01 00:18:50;;;;;;;11.15;7.97;;;;;;;19.45;52.88;93703.75;4972560;28;20510;-79
2022/09/01 00:21:18;;;;;;;14.85;8.32;;;;;;;19.47;53.04;93693.34;4973527;28;20033;-79
2022/09/01 00:23:44;;;;;;;12.23;7.10;;;;;;;19.17;52.86;93639.50;4973219;28;20065;-79
2022/09/01 00:26:10;;;;;;;8.40;6.65;;;;;;;19.46;52.50;93689.09;4974093;28;20027;-79
2022/09/01 00:28:36;;;;;;;9.93;6.32;;;;;;;19.45;52.71;93692.97;4974481;28;20418;-80
2022/09/01 00:31:05;;;;;;;10.38;7.15;;;;;;;19.25;52.71;93667.31;4973055;28;20049;-79
2022/09/01 00:33:32;;;;;;;7.75;6.22;;;;;;;19.24;52.83;93673.84;4955238;28;20085;-80
2022/09/01 00:35:58;;;;;;;9.55;6.97;;;;;;;19.35;52.86;93696.31;4972679;28;20716;-80
2022/09/01 00:38:24;;;;;;;13.45;7.57;;;;;;;19.32;53.20;93705.13;4971698;28;20042;-80
2022/09/01 00:40:50;;;;;;;10.27;7.50;;;;;;;19.23;53.34;93696.56;4973513;28;20019;-81
2022/09/01 00:43:35;;;;;;;9.73;7.32;;;;;;;19.24;53.65;93711.59;4972092;28;20023;-80
2022/09/01 00:46:02;;;;;;;8.52;7.50;;;;;;;19.07;53.67;93682.53;4963335;28;20056;-78
2022/09/01 00:48:28;;;;;;;10.10;6.90;;;;;;;19.06;53.94;93689.88;4955950;28;20038;-81
2022/09/01 00:50:54;;;;;;;11.43;7.57;;;;;;;19.15;53.97;93708.44;4972302;28;20389;-79
2022/09/01 00:53:19;;;;;;;8.60;6.82;;;;;;;19.01;53.79;93678.63;4971079;28;20045;-80
2022/09/01 00:55:44;;;;;;;11.77;7.07;;;;;;;19.09;53.56;93686.41;4956929;28;20483;-80
2022/09/01 00:58:10;;;;;;;10.65;7.35;;;;;;;18.99;53.54;93673.59;4973357;28;20033;-79
2022/09/01 01:00:39;;;;;;;9.82;6.88;;;;;;;19.19;53.78;93710.00;4972283;28;20018;-79
2022/09/01 01:03:07;;;;;;;9.18;6.78;;;;;;;19.07;53.69;93699.47;4972898;28;20426;-79
2022/09/01 01:05:52;;;;;;;7.78;6.70;;;;;;;19.10;53.60;93714.16;4970840;28;20403;-78
2022/09/01 01:08:28;;;;;;;10.00;6.50;;;;;;;19.05;53.88;93709.88;4957036;28;20399;-79
2022/09/01 01:11:31;;;;;;;10.13;7.07;;;;;;;18.88;53.94;93700.44;4957745;28;20030;-79
2022/09/01 01:14:00;;;;;;;10.93;7.47;;;;;;;18.96;54.22;93719.38;4930385;28;20042;-79
2022/09/01 01:16:27;;;;;;;10.00;7.07;;;;;;;18.85;54.52;93709.25;4932110;28;20146;-78
2022/09/01 01:18:54;;;;;;;9.93;7.40;;;;;;;18.80;54.93;93709.59;4931356;28;20143;-80
2022/09/01 01:24:33;;;;;;;10.65;8.77;;;;;;;18.95;55.07;93715.13;4930708;28;20070;-79
2022/09/01 01:26:59;;;;;;;11.68;8.27;;;;;;;18.94;55.17;93717.06;4931045;28;21035;-80
2022/09/01 01:29:30;;;;;;;11.18;8.32;;;;;;;18.71;55.37;93689.47;4930070;28;20833;-78
2022/09/01 01:31:56;;;;;;;11.55;7.90;;;;;;;18.77;55.44;93696.81;4931476;28;20038;-78
2022/09/01 01:34:22;;;;;;;9.25;7.05;;;;;;;18.58;55.23;93680.78;4928726;28;20661;-80
2022/09/01 01:36:49;;;;;;;9.73;7.57;;;;;;;18.59;55.51;93685.03;4930834;28;20028;-78
2022/09/01 01:39:20;;;;;;;12.75;8.68;;;;;;;18.76;55.46;93706.06;4929981;28;20662;-79
2022/09/01 01:41:47;;;;;;;11.68;8.32;;;;;;;18.72;55.56;93696.41;4921057;28;20054;-78
2022/09/01 01:44:15;;;;;;;12.55;9.23;;;;;;;18.74;55.56;93704.88;4936480;28;20045;-79
2022/09/01 01:46:43;;;;;;;10.40;8.23;;;;;;;18.65;55.91;93697.06;4968913;28;20534;-79
2022/09/01 01:49:12;;;;;;;11.43;9.50;;;;;;;18.78;56.16;93733.41;4970649;28;20026;-78
2022/09/01 01:51:38;;;;;;;14.70;10.18;;;;;;;18.78;56.38;93727.25;4969814;28;20108;-80
2022/09/01 01:54:04;;;;;;;12.68;9.55;;;;;;;18.71;56.27;93716.41;4972338;28;20356;-79
2022/09/01 01:56:31;;;;;;;14.45;9.25;;;;;;;18.81;56.05;93716.53;4971380;28;20073;-79
2022/09/01 01:58:58;;;;;;;11.48;8.23;;;;;;;18.91;55.80;93739.34;4960571;28;20575;-81
2022/09/01 02:01:28;;;;;;;13.05;9.32;;;;;;;18.94;55.92;93740.53;4970716;28;20031;-79
2022/09/01 02:03:55;;;;;;;12.55;9.13;;;;;;;18.92;56.10;93743.56;4969063;28;20034;-80
2022/09/01 02:06:24;;;;;;;17.35;10.50;;;;;;;18.76;56.09;93719.53;4972553;28;20102;-81
2022/09/01 02:08:57;;;;;;;16.35;10.90;;;;;;;18.71;56.41;93709.09;4971158;28;20081;-79
2022/09/01 02:11:27;;;;;;;18.35;12.32;;;;;;;18.89;56.60;93747.00;4971661;28;20029;-81
2022/09/01 02:13:56;;;;;;;17.85;11.88;;;;;;;18.60;56.95;93691.22;4952702;28;20069;-81
2022/09/01 02:16:23;;;;;;;19.60;12.68;;;;;;;18.71;57.01;93708.31;4969961;28;20136;-79
2022/09/01 02:18:50;;;;;;;19.33;13.48;;;;;;;18.74;57.46;93713.75;4971110;28;20062;-80
2022/09/01 02:21:19;;;;;;;21.25;14.13;;;;;;;18.78;57.76;93721.84;4971910;28;20470;-80
2022/09/01 02:23:47;;;;;;;20.50;14.13;;;;;;;18.83;57.65;93733.09;4972251;28;20082;-80
2022/09/01 02:26:15;;;;;;;17.98;12.15;;;;;;;18.89;57.57;93747.78;4970447;28;20487;-80
2022/09/01 02:28:41;;;;;;;18.23;13.30;;;;;;;18.85;56.72;93733.50;4956049;28;20038;-79
2022/09/01 02:31:10;;;;;;;16.65;11.38;;;;;;;18.84;56.96;93728.47;4953778;28;20022;-80
2022/09/01 02:33:36;;;;;;;19.15;12.18;;;;;;;18.58;56.46;93696.94;4970755;28;20526;-80
2022/09/01 02:36:12;;;;;;;16.45;10.38;;;;;;;18.74;56.48;93719.13;4970741;28;20170;-80
2022/09/01 02:38:41;;;;;;;16.30;10.10;;;;;;;18.82;56.35;93720.00;4971397;28;20498;-80
2022/09/01 02:41:07;;;;;;;14.30;9.10;;;;;;;18.87;56.05;93728.50;4970338;28;20263;-79
2022/09/01 02:43:34;;;;;;;14.13;9.70;;;;;;;18.74;55.77;93697.56;4970029;28;20058;-79
2022/09/01 02:46:01;;;;;;;10.80;8.30;;;;;;;18.85;55.83;93719.25;4970781;28;20050;-80
2022/09/01 02:48:36;;;;;;;11.55;8.65;;;;;;;18.84;55.81;93726.56;4970098;28;20030;-79
2022/09/01 02:51:09;;;;;;;13.23;8.80;;;;;;;18.66;55.41;93690.53;4969574;28;20026;-80
2022/09/01 02:53:38;;;;;;;11.43;7.32;;;;;;;18.79;55.55;93716.09;4969505;28;20395;-80
2022/09/01 02:56:08;;;;;;;12.93;8.02;;;;;;;18.76;55.20;93716.84;4970412;28;20032;-81
2022/09/01 02:58:39;;;;;;;13.05;8.23;;;;;;;18.65;55.16;93713.22;4972901;28;20038;-79
2022/09/01 03:01:11;;;;;;;10.48;6.70;;;;;;;18.52;55.02;93701.13;4956143;28;20709;-79
2022/09/01 03:03:37;;;;;;;11.07;7.53;;;;;;;18.50;55.09;93708.78;4963351;28;20035;-80
2022/09/01 03:06:10;;;;;;;12.75;7.22;;;;;;;18.55;55.36;93716.53;4973822;28;20037;-80
2022/09/01 03:08:37;;;;;;;11.35;7.28;;;;;;;18.28;55.22;93680.03;4974665;28;20039;-78
2022/09/01 03:11:03;;;;;;;10.88;8.50;;;;;;;18.51;55.68;93715.72;4975067;28;20545;-80
2022/09/01 03:13:30;;;;;;;11.07;8.20;;;;;;;18.17;55.72;93674.50;4973616;28;20034;-79
2022/09/01 03:15:56;;;;;;;9.48;7.43;;;;;;;18.42;55.74;93702.53;4974793;28;20395;-80
2022/09/01 03:18:21;;;;;;;12.20;8.32;;;;;;;18.32;55.72;93686.25;4973439;28;20022;-80
2022/09/01 03:20:51;;;;;;;12.00;8.90;;;;;;;18.50;55.86;93714.16;4973161;28;20726;-80
2022/09/01 03:23:17;;;;;;;11.98;8.48;;;;;;;18.35;55.80;93693.56;4972990;28;20664;-79
2022/09/01 03:25:45;;;;;;;11.38;7.68;;;;;;;18.48;55.72;93718.38;4973389;28;20546;-78
2022/09/01 03:28:12;;;;;;;10.00;7.07;;;;;;;18.32;55.81;93697.00;4973634;28;20624;-78
2022/09/01 03:30:39;;;;;;;12.70;7.55;;;;;;;18.44;55.71;93723.69;4955202;28;20034;-78
2022/09/01 03:33:06;;;;;;;9.65;6.50;;;;;;;18.41;55.27;93727.13;4968631;28;20056;-78
2022/09/01 03:35:33;;;;;;;9.38;7.28;;;;;;;18.29;55.33;93713.88;4954953;28;20039;-78
2022/09/01 03:38:00;;;;;;;8.60;6.63;;;;;;;18.25;55.26;93713.06;4953460;28;20022;-81
2022/09/01 03:40:31;;;;;;;10.18;7.90;;;;;;;18.15;55.61;93703.69;4952392;28;20030;-79
2022/09/01 03:43:01;;;;;;;10.13;7.90;;;;;;;18.16;55.74;93702.56;4960722;28;20029;-79
2022/09/01 03:45:28;;;;;;;9.82;6.80;;;;;;;18.32;55.52;93730.09;4953881;28;20044;-80
2022/09/01 03:47:54;;;;;;;8.43;6.30;;;;;;;18.24;55.41;93716.88;4953903;28;20031;-78
2022/09/01 03:50:23;;;;;;;8.60;6.93;;;;;;;18.02;55.27;93695.06;4954636;28;20372;-80
2022/09/01 03:52:55;;;;;;;9.13;6.30;;;;;;;18.16;55.40;93726.00;4954235;28;20027;-79
2022/09/01 03:55:28;;;;;;;7.55;6.55;;;;;;;18.17;55.45;93720.25;4953242;28;20034;-78
2022/09/01 03:57:56;;;;;;;8.82;6.80;;;;;;;17.72;55.68;93648.44;4953256;28;20095;-80
2022/09/01 04:00:28;;;;;;;8.13;6.00;;;;;;;18.16;55.67;93726.00;4951877;28;20480;-79
2022/09/01 04:02:56;;;;;;;8.70;7.07;;;;;;;17.81;55.73;93675.88;4952030;28;20026;-78
2022/09/01 04:05:27;;;;;;;10.65;7.35;;;;;;;17.98;56.05;93705.00;4953855;28;20033;-80
2022/09/01 04:07:54;;;;;;;11.75;7.72;;;;;;;18.04;55.92;93724.28;4952880;28;20030;-78
2022/09/01 04:10:21;;;;;;;10.48;7.43;;;;;;;17.76;55.92;93678.88;4951703;28;20301;-78
2022/09/01 04:12:46;;;;;;;10.82;7.72;;;;;;;17.79;56.08;93690.84;4953319;28;20500;-78
2022/09/01 04:15:15;;;;;;;11.35;7.82;;;;;;;18.07;56.29;93744.31;4953890;28;20038;-78
2022/09/01 04:20:26;;;;;;;14.15;8.02;;;;;;;18.04;56.82;93725.06;4954040;28;20439;-80
2022/09/01 04:22:52;;;;;;;12.88;9.43;;;;;;;18.14;57.05;93723.66;4953058;28;20034;-80
2022/09/01 04:25:22;;;;;;;13.57;8.70;;;;;;;18.11;57.41;93718.22;4953922;28;20407;-81
2022/09/01 04:27:49;;;;;;;11.57;8.52;;;;;;;18.03;57.27;93712.75;4953855;28;20063;-80
2022/09/01 04:30:14;;;;;;;10.20;8.13;;;;;;;18.15;57.36;93725.22;4958606;28;20394;-80
2022/09/01 04:32:42;;;;;;;13.85;8.65;;;;;;;18.15;57.17;93719.84;4961666;28;20046;-78
2022/09/01 04:35:15;;;;;;;10.85;8.35;;;;;;;17.94;57.36;93687.25;4974164;28;20569;-81
2022/09/01 04:37:41;;;;;;;14.63;8.95;;;;;;;18.05;57.73;93707.00;4972738;28;20027;-80
2022/09/01 04:40:08;;;;;;;13.77;8.68;;;;;;;17.99;57.56;93695.00;4972642;28;20022;-80
2022/09/01 04:42:34;;;;;;;11.35;7.72;;;;;;;18.21;57.62;93725.69;4974387;28;20030;-80
2022/09/01 04:45:01;;;;;;;16.30;9.18;;;;;;;18.28;57.50;93728.50;4956102;28;20062;-80
2022/09/01 04:47:30;;;;;;;13.85;8.65;;;;;;;18.28;58.14;93713.13;4972096;28;20034;-80
2022/09/01 04:49:59;;;;;;;14.82;10.05;;;;;;;18.30;57.94;93712.75;4955334;28;20380;-80
2022/09/01 04:52:27;;;;;;;19.13;10.45;;;;;;;18.28;57.75;93701.56;4973054;28;20034;-80
2022/09/01 04:54:53;;;;;;;20.83;10.82;;;;;;;18.53;57.85;93723.44;4972866;28;20088;-80
2022/09/01 04:57:19;;;;;;;13.02;10.00;;;;;;;18.53;57.44;93708.03;4972107;28;20027;-80
2022/09/01 04:59:45;;;;;;;12.65;10.02;;;;;;;18.54;57.57;93704.22;4972670;28;20030;-80
2022/09/01 05:02:11;;;;;;;15.55;9.80;;;;;;;18.79;57.16;93721.50;4969332;28;20029;-82
2022/09/01 05:04:43;;;;;;;13.82;10.05;;;;;;;18.68;56.70;93693.63;4961663;28;20089;-80
2022/09/01 05:07:09;;;;;;;14.27;9.55;;;;;;;18.68;56.52;93688.22;4969323;28;20398;-78
2022/09/01 05:09:36;;;;;;;16.95;10.85;;;;;;;18.93;56.57;93723.56;4955623;28;20030;-80
2022/09/01 05:12:14;;;;;;;14.18;9.93;;;;;;;18.83;56.74;93700.75;4971593;28;20030;-79
2022/09/01 05:14:42;;;;;;;14.88;9.82;;;;;;;18.93;57.08;93710.09;4971999;28;20029;-79
2022/09/01 05:17:12;;;;;;;16.02;10.55;;;;;;;18.93;56.86;93703.94;4973372;28;20110;-80
2022/09/01 05:19:40;;;;;;;16.60;11.32;;;;;;;18.88;57.38;93678.09;4969503;28;20074;-82
2022/09/01 05:22:09;;;;;;;17.05;11.07;;;;;;;19.00;57.11;93685.94;4960988;28;20027;-79
2022/09/01 05:24:35;;;;;;;15.38;11.00;;;;;;;19.10;56.91;93687.19;4972896;28;20443;-81
2022/09/01 05:27:04;;;;;;;16.00;11.32;;;;;;;19.29;56.75;93706.66;4971488;28;20029;-80
2022/09/01 05:29:29;;;;;;;16.30;11.27;;;;;;;19.46;56.73;93715.28;4970934;28;20089;-79
2022/09/01 05:31:55;;;;;;;13.80;9.80;;;;;;;19.41;55.44;93697.50;4971482;28;20487;-80
2022/09/01 05:34:28;;;;;;;14.68;10.98;;;;;;;19.50;55.35;93708.81;4973329;28;20033;-81
2022/09/01 05:36:58;;;;;;;13.65;10.27;;;;;;;19.36;55.94;93678.97;4955446;28;20030;-81
2022/09/01 05:39:26;;;;;;;13.60;9.75;;;;;;;19.43;55.70;93683.66;4970543;28;20034;-82
2022/09/01 05:41:52;;;;;;;14.25;10.98;;;;;;;19.66;55.77;93719.34;4970759;28;20039;-81
2022/09/01 05:44:21;;;;;;;16.77;10.95;;;;;;;19.47;55.34;93677.19;4967692;28;20062;-81
2022/09/01 05:46:48;;;;;;;17.30;10.88;;;;;;;19.78;55.13;93707.50;4970783;28;20114;-79
2022/09/01 05:49:17;;;;;;;16.65;11.00;;;;;;;19.85;55.04;93710.28;4971865;28;20164;-81
2022/09/01 05:51:48;;;;;;;19.48;11.93;;;;;;;19.68;54.50;93674.66;4970766;28;20110;-79
2022/09/01 05:54:20;;;;;;;15.10;10.88;;;;;;;19.96;53.80;93713.81;4957171;28;20035;-80
2022/09/01 05:56:45;;;;;;;16.80;11.52;;;;;;;20.02;54.12;93715.78;4954218;28;20779;-80
2022/09/01 05:59:12;;;;;;;15.02;10.80;;;;;;;20.01;53.71;93724.25;4960727;28;20018;-80
2022/09/01 06:01:39;;;;;;;14.63;11.20;;;;;;;19.97;54.22;93709.97;4970699;28;20026;-79
2022/09/01 06:04:07;;;;;;;20.67;12.60;;;;;;;19.93;54.03;93706.47;4971181;28;20026;-79
2022/09/01 06:06:39;;;;;;;18.00;12.25;;;;;;;19.78;54.73;93686.69;4953993;28;20038;-80
2022/09/01 06:09:06;;;;;;;23.48;13.48;;;;;;;20.01;55.14;93718.84;4969892;28;20023;-80
2022/09/01 06:11:32;;;;;;;16.17;13.07;;;;;;;19.78;54.80;93669.72;4952813;28;20057;-80
2022/09/01 06:13:58;;;;;;;18.95;12.32;;;;;;;19.99;54.36;93684.16;4959713;28;20030;-81
2022/09/01 06:16:44;;;;;;;19.33;12.23;;;;;;;20.15;54.23;93694.66;4955553;28;20369;-81
2022/09/01 06:19:11;;;;;;;20.10;13.20;;;;;;;20.23;54.43;93687.41;4971662;28;20513;-81
2022/09/01 06:21:38;;;;;;;17.25;12.00;;;;;;;20.14;54.05;93674.22;4969729;28;20816;-81
2022/09/01 06:24:05;;;;;;;18.20;12.70;;;;;;;20.34;54.09;93689.00;4959571;28;20038;-82
2022/09/01 06:26:34;;;;;;;18.30;12.02;;;;;;;20.43;54.55;93694.09;4970771;28;20038;-81
2022/09/01 06:29:05;;;;;;;18.27;12.60;;;;;;;20.52;54.61;93703.41;4971481;28;20026;-81
2022/09/01 06:31:33;;;;;;;18.60;12.15;;;;;;;20.60;53.76;93706.91;4952844;28;20026;-80
2022/09/01 06:34:04;;;;;;;17.48;11.95;;;;;;;20.56;53.44;93684.50;4952167;28;20600;-80
2022/09/01 06:36:33;;;;;;;18.45;13.32;;;;;;;20.72;53.33;93703.91;4969644;28;20026;-80
2022/09/01 06:39:00;;;;;;;17.83;11.85;;;;;;;20.66;53.26;93683.00;4951929;28;20726;-81
2022/09/01 06:41:26;;;;;;;21.33;11.68;;;;;;;20.79;53.11;93692.31;4969948;28;20559;-81
2022/09/01 06:43:52;;;;;;;16.52;11.07;;;;;;;20.62;53.16;93682.22;4969262;28;20026;-80
2022/09/01 06:46:20;;;;;;;15.05;10.77;;;;;;;20.58;53.45;93672.16;4958212;28;20435;-82
2022/09/01 06:48:46;;;;;;;13.95;9.60;;;;;;;20.73;53.15;93680.34;4961050;28;20510;-80
2022/09/01 06:51:19;;;;;;;17.05;10.43;;;;;;;20.91;52.56;93694.72;4970325;28;20131;-80
2022/09/01 06:53:48;;;;;;;15.85;10.50;;;;;;;20.96;52.51;93699.75;4952808;28;20451;-80
2022/09/01 06:56:14;;;;;;;13.45;10.25;;;;;;;21.03;53.02;93692.44;4971398;28;20035;-79
2022/09/01 06:58:47;;;;;;;17.17;9.07;;;;;;;20.88;52.13;93665.72;4958661;28;20033;-79
2022/09/01 07:01:16;;;;;;;13.75;9.27;;;;;;;21.10;51.19;93691.69;4960104;28;20023;-80
2022/09/01 07:03:43;;;;;;;12.65;9.52;;;;;;;21.15;51.06;93704.84;4953452;28;20026;-79
2022/09/01 07:06:10;;;;;;;16.67;10.30;;;;;;;21.23;50.49;93695.59;4968493;28;20538;-80
2022/09/01 07:08:38;;;;;;;15.32;10.15;;;;;;;21.04;50.76;93701.31;4970469;28;20376;-79
2022/09/01 07:11:06;;;;;;;15.70;10.65;;;;;;;20.89;51.04;93675.41;4969662;28;20117;-81
2022/09/01 07:13:33;;;;;;;16.23;11.30;;;;;;;20.99;51.86;93680.06;4983789;28;20037;-81
2022/09/01 07:15:59;;;;;;;14.52;11.13;;;;;;;21.04;51.44;93677.00;4983003;28;20034;-82
2022/09/01 07:18:25;;;;;;;18.38;11.18;;;;;;;21.01;51.72;93661.56;4979534;28;20525;-79
2022/09/01 07:20:53;;;;;;;18.55;13.27;;;;;;;21.29;52.16;93698.69;4969515;28;20105;-80
2022/09/01 07:23:20;;;;;;;22.02;11.82;;;;;;;21.34;51.90;93701.81;4959669;28;20117;-82
2022/09/01 07:25:48;;;;;;;16.25;12.13;;;;;;;21.32;52.23;93687.88;4973720;28;20053;-80
2022/09/01 07:28:16;;;;;;;21.55;12.23;;;;;;;21.35;52.39;93692.53;4970904;28;20161;-79
2022/09/01 07:30:47;;;;;;;20.85;13.18;;;;;;;21.35;52.93;93695.25;4970608;28;20022;-79
2022/09/01 07:33:15;;;;;;;16.40;12.68;;;;;;;21.23;52.69;93670.47;4951885;28;20062;-80
2022/09/01 07:35:41;;;;;;;21.15;12.52;;;;;;;21.52;52.64;93698.34;4969284;28;20054;-80
2022/09/01 07:38:08;;;;;;;20.55;13.13;;;;;;;21.31;52.26;93653.88;4969918;28;20022;-79
2022/09/01 07:40:37;;;;;;;19.55;13.45;;;;;;;21.62;52.41;93690.25;4971195;28;20533;-79
2022/09/01 07:43:13;;;;;;;20.80;13.20;;;;;;;21.32;52.69;93655.41;4958576;28;20030;-81
2022/09/01 07:45:46;;;;;;;18.80;12.85;;;;;;;21.18;51.87;93641.88;4972726;28;20498;-81
2022/09/01 07:48:13;;;;;;;17.40;12.75;;;;;;;21.58;52.19;93689.50;4972328;28;20460;-80
2022/09/01 07:50:46;;;;;;;25.80;13.63;;;;;;;21.68;52.23;93690.66;4974447;28;20088;-80
2022/09/01 07:53:22;;;;;;;33.95;15.27;;;;;;;21.71;51.89;93695.28;4973424;28;20498;-79
2022/09/01 07:55:54;;;;;;;20.00;13.82;;;;;;;21.77;51.81;93701.88;4975244;28;20026;-80
2022/09/01 07:58:22;;;;;;;22.35;13.73;;;;;;;21.75;51.34;93696.88;4973131;28;20038;-80
2022/09/01 08:00:50;;;;;;;27.05;15.05;;;;;;;21.79;51.14;93691.44;4972530;28;20153;-80
2022/09/01 08:03:17;;;;;;;21.95;14.40;;;;;;;21.80;51.67;93696.44;4973516;28;20046;-81
2022/09/01 08:05:44;;;;;;;25.90;16.25;;;;;;;21.39;51.89;93660.84;4973226;28;20034;-80
2022/09/01 08:08:09;;;;;;;20.85;14.88;;;;;;;21.56;52.13;93686.38;4973474;28;20056;-80
2022/09/01 08:10:39;;;;;;;23.90;15.60;;;;;;;21.74;51.85;93708.06;4973054;28;20647;-80
2022/09/01 08:13:04;;;;;;;26.45;15.57;;;;;;;21.78;52.66;93698.78;4973008;28;20026;-82
2022/09/01 08:15:30;;;;;;;25.40;17.02;;;;;;;21.58;52.52;93664.34;4971617;28;20077;-80
2022/09/01 08:17:56;;;;;;;25.05;17.23;;;;;;;21.62;52.77;93673.25;4971777;28;20045;-79
2022/09/01 08:20:21;;;;;;;32.25;18.58;;;;;;;21.63;52.11;93691.81;4960615;28;20027;-80
2022/09/01 08:22:47;;;;;;;25.60;17.42;;;;;;;21.54;52.51;93663.56;4972444;28;20523;-80
2022/09/01 08:25:14;;;;;;;24.42;16.05;;;;;;;21.70;53.01;93680.22;4974563;28;20033;-80
2022/09/01 08:27:39;;;;;;;27.27;16.95;;;;;;;21.84;53.61;93688.34;4972569;28;20030;-82
2022/09/01 08:30:08;;;;;;;24.58;16.45;;;;;;;21.80;52.45;93674.78;4974520;28;20110;-81
2022/09/01 08:32:34;;;;;;;24.88;16.20;;;;;;;21.79;52.72;93675.19;4972139;28;20062;-80
2022/09/01 08:35:00;;;;;;;28.48;15.85;;;;;;;21.69;52.70;93641.56;4972555;28;20038;-82
2022/09/01 08:37:26;;;;;;;19.80;14.85;;;;;;;21.70;52.62;93626.09;4971611;28;20088;-80
2022/09/01 08:39:52;;;;;;;27.60;15.25;;;;;;;21.80;53.20;93674.06;4972332;28;20237;-81
2022/09/01 08:43:06;;;;;;;24.52;14.90;;;;;;;21.72;53.62;93673.25;4972974;28;20448;-81
2022/09/01 08:45:57;;;;;;;21.30;14.65;;;;;;;21.84;53.23;93686.41;4966978;28;20038;-80
2022/09/01 08:48:45;;;;;;;24.23;15.18;;;;;;;21.81;52.94;93660.09;4971603;28;20053;-81
2022/09/01 08:51:36;;;;;;;21.83;15.32;;;;;;;22.01;52.23;93681.38;4974669;28;20022;-80
2022/09/01 08:54:13;;;;;;;26.15;16.42;;;;;;;22.04;52.52;93678.66;4971636;28;20486;-80
2022/09/01 08:56:39;;;;;;;21.90;15.63;;;;;;;21.98;52.36;93658.56;4973041;28;20085;-82
2022/09/01 08:59:08;;;;;;;24.08;16.17;;;;;;;21.92;51.98;93653.91;4971049;28;20038;-79
2022/09/01 09:02:21;;;;;;;24.58;16.38;;;;;;;22.11;51.72;93670.53;4974180;28;20033;-82
2022/09/01 09:04:52;;;;;;;23.73;14.18;;;;;;;22.21;51.56;93664.34;4967023;28;20066;-79
2022/09/01 09:07:20;;;;;;;22.98;15.10;;;;;;;22.23;51.59;93659.31;4971415;28;20673;-82
2022/09/01 09:09:55;;;;;;;24.42;14.07;;;;;;;22.29;51.50;93655.03;4971147;28;20066;-80
2022/09/01 09:12:36;;;;;;;22.75;14.60;;;;;;;22.26;50.56;93649.63;4970058;28;20601;-81
2022/09/01 09:15:19;;;;;;;20.58;12.25;;;;;;;22.22;51.31;93625.28;4971092;28;20027;-81
2022/09/01 09:17:55;;;;;;;20.45;13.68;;;;;;;22.29;50.81;93619.06;4956053;28;20035;-79
2022/09/01 09:20:20;;;;;;;20.92;13.45;;;;;;;22.54;50.91;93640.63;4970986;28;20041;-81
2022/09/01 09:22:47;;;;;;;18.48;13.38;;;;;;;22.40;50.07;93611.66;4959591;28;20030;-80
2022/09/01 09:25:16;;;;;;;19.48;13.75;;;;;;;22.48;49.94;93624.03;4972522;28;20117;-80
2022/09/01 09:27:44;;;;;;;18.92;13.30;;;;;;;22.52;49.68;93627.50;4970451;28;20531;-81
2022/09/01 09:30:18;;;;;;;22.35;14.38;;;;;;;22.64;50.64;93647.97;4955104;28;20037;-81
2022/09/01 09:32:48;;;;;;;21.60;11.32;;;;;;;22.66;50.02;93632.88;4959544;28;20138;-79
2022/09/01 09:35:19;;;;;;;18.65;13.20;;;;;;;22.82;49.92;93640.53;4973037;28;20027;-80
2022/09/01 09:37:44;;;;;;;17.15;12.43;;;;;;;22.92;49.64;93639.75;4971507;28;20048;-80
2022/09/01 09:40:13;;;;;;;18.80;12.93;;;;;;;23.03;48.87;93639.69;4971034;28;20023;-79
2022/09/01 09:43:00;;;;;;;18.60;11.95;;;;;;;23.09;48.84;93629.97;4971680;28;20029;-81
2022/09/01 09:45:38;;;;;;;20.02;12.48;;;;;;;23.15;48.80;93634.59;4969730;28;20038;-80
2022/09/01 09:48:28;;;;;;;16.30;11.07;;;;;;;23.22;47.83;93631.03;4970828;28;20556;-78
2022/09/01 09:50:53;;;;;;;16.92;10.93;;;;;;;23.27;46.85;93633.31;4971964;28;20073;-81
2022/09/01 09:53:31;;;;;;;18.80;12.15;;;;;;;23.24;46.98;93622.50;4969593;28;20414;-80
2022/09/01 09:56:19;;;;;;;15.48;10.55;;;;;;;23.33;45.71;93636.41;4972213;28;20025;-79
2022/09/01 09:58:47;;;;;;;15.50;10.20;;;;;;;23.28;45.98;93624.03;4955839;28;20033;-79
2022/09/01 10:01:22;;;;;;;14.30;10.52;;;;;;;23.34;45.60;93629.81;4969894;28;20862;-78
2022/09/01 10:03:51;;;;;;;19.55;11.35;;;;;;;23.33;46.13;93612.75;4971216;28;20026;-79
2022/09/01 10:06:37;;;;;;;15.13;12.25;;;;;;;23.42;46.77;93623.91;4970639;28;20395;-79
2022/09/01 10:09:34;;;;;;;18.27;11.93;;;;;;;23.47;46.00;93617.28;4969719;28;20120;-81
2022/09/01 10:12:02;;;;;;;15.32;11.82;;;;;;;23.37;45.99;93604.56;4971832;28;20034;-80
2022/09/01 10:14:49;;;;;;;19.30;12.75;;;;;;;23.40;47.78;93617.38;4954265;28;20031;-78
2022/09/01 10:17:20;;;;;;;15.13;10.77;;;;;;;23.36;46.82;93606.53;4970798;28;20450;-80
2022/09/01 10:19:54;;;;;;;15.23;10.63;;;;;;;23.56;46.99;93623.09;4957402;28;20029;-78
2022/09/01 10:22:22;;;;;;;;;;;;;;;23.29;46.99;93576.72;4970621;28;20026;-79
2022/09/01 10:24:47;;;;;;;15.10;11.52;;;;;;;23.49;47.88;93601.44;4955796;28;19914;-79
2022/09/01 10:27:22;;;;;;;16.98;10.40;;;;;;;23.60;47.26;93612.97;4971598;28;20486;-78
2022/09/01 10:29:55;;;;;;;19.60;11.68;;;;;;;23.55;46.73;93605.25;4971051;28;20110;-79
2022/09/01 10:32:30;;;;;;;18.70;10.82;;;;;;;23.53;47.20;93592.09;4969406;28;20438;-79
2022/09/01 10:34:56;;;;;;;18.00;10.80;;;;;;;23.68;47.02;93605.53;4968914;28;20118;-78
2022/09/01 10:37:22;;;;;;;11.55;9.77;;;;;;;23.66;46.96;93597.78;4953679;28;20026;-80
2022/09/01 10:40:14;;;;;;;11.70;9.85;;;;;;;23.71;47.57;93604.75;4969945;28;20026;-79
2022/09/01 10:42:45;;;;;;;14.70;10.30;;;;;;;23.39;47.98;93561.53;4970851;28;20696;-80
2022/09/01 10:45:41;;;;;;;13.80;10.68;;;;;;;23.77;48.32;93612.03;4970072;28;20026;-79
2022/09/01 10:48:19;;;;;;;18.13;11.45;;;;;;;23.80;48.03;93613.19;4952871;28;20031;-79
2022/09/01 10:50:46;;;;;;;15.35;11.27;;;;;;;23.72;47.17;93604.31;4969305;28;20027;-80
2022/09/01 10:53:33;;;;;;;16.83;11.27;;;;;;;23.83;48.43;93602.28;4961991;28;20034;-79
2022/09/01 10:56:04;;;;;;;15.02;9.88;;;;;;;23.86;47.30;93604.19;4954095;28;20695;-80
2022/09/01 10:58:38;;;;;;;13.77;10.18;;;;;;;23.89;45.60;93606.13;4968144;28;20030;-79
2022/09/01 11:01:03;;;;;;;15.33;8.93;;;;;;;23.74;44.47;93580.28;4953209;28;20112;-79
2022/09/01 11:03:35;;;;;;;14.55;9.15;;;;;;;23.82;44.69;93581.75;4967919;28;20105;-78
2022/09/01 11:06:08;;;;;;;10.70;8.65;;;;;;;23.88;45.48;93591.00;4970747;28;20552;-79
2022/09/01 11:08:33;;;;;;;9.15;7.88;;;;;;;23.98;43.46;93586.63;4968667;28;20105;-79
2022/09/01 11:11:06;;;;;;;12.40;8.02;;;;;;;24.02;44.35;93593.56;4969434;28;20038;-80
2022/09/01 11:13:42;;;;;;;14.63;9.98;;;;;;;23.80;46.64;93550.75;4970705;28;20031;-80
2022/09/01 11:16:30;;;;;;;13.40;10.18;;;;;;;24.16;45.88;93589.97;4969760;28;20061;-80
2022/09/01 11:19:33;;;;;;;13.05;9.35;;;;;;;23.94;44.36;93554.09;4970883;28;20110;-80
2022/09/01 11:22:33;;;;;;;15.45;9.15;;;;;;;24.26;44.87;93580.94;4972175;28;20053;-80
2022/09/01 11:25:33;;;;;;;11.10;9.18;;;;;;;24.30;43.23;93578.94;4975142;28;20522;-78
2022/09/01 11:27:59;;;;;;;14.43;8.95;;;;;;;24.30;42.86;93567.28;4971617;28;20046;-80
2022/09/01 11:30:30;;;;;;;12.18;8.25;;;;;;;24.37;42.39;93576.16;4973868;28;20043;-78
2022/09/01 11:33:25;;;;;;;9.93;8.85;;;;;;;24.34;42.44;93551.75;4973662;28;20046;-80
2022/09/01 11:35:59;;;;;;;13.18;10.40;;;;;;;24.38;41.98;93552.47;4968897;28;20058;-80
2022/09/01 11:38:27;;;;;;;10.95;9.07;;;;;;;24.28;41.16;93537.84;4961329;28;20045;-79
2022/09/01 11:40:56;;;;;;;10.73;7.95;;;;;;;24.44;40.74;93556.28;4976493;28;20022;-79
2022/09/01 11:43:24;;;;;;;9.70;7.43;;;;;;;24.37;40.69;93531.91;4972651;28;20093;-78